Time;durP1;ratioP1;P1;durP2;ratioP2;P2;SDS_P1;SDS_P2;PMS_P1;PMS_P2;Temp;Humidity;BMP_temperature;BMP_pressure;BME280_temperature;BME280_humidity;BME280_pressure;Samples;Min_cycle;Max_cycle;Signal;HPM_P1;HPM_P2
2023/07/15 00:01:23;;;;;;;;;;;;;;;29.96;37.71;94023.06;5031213;28;8084;-62
2023/07/15 00:04:14;;;;;;;;;;;;;;;29.96;37.70;94022.34;5032045;28;8979;-59
2023/07/15 00:06:40;;;;;;;;;;;;;;;29.93;38.55;94017.91;5013692;28;7279;-57
2023/07/15 00:09:09;;;;;;;;;;;;;;;29.94;38.53;94025.66;5028347;28;9218;-57
2023/07/15 00:11:42;;;;;;;;;;;;;;;29.92;38.56;94021.94;5010075;28;7693;-57
2023/07/15 00:14:21;;;;;;;;;;;;;;;29.93;38.03;94021.38;5012780;28;9062;-57
2023/07/15 00:16:49;;;;;;;;;;;;;;;29.93;38.03;94021.38;5027112;28;8827;-57
2023/07/15 00:19:22;;;;;;;;;;;;;;;29.91;37.70;94015.66;5030210;28;7092;-56
2023/07/15 00:21:48;;;;;;;;;;;;;;;29.92;37.64;94013.63;5020493;28;7558;-57
2023/07/15 00:24:28;;;;;;;;;;;;;;;29.90;37.93;94011.41;5032390;28;7000;-57
2023/07/15 00:27:12;;;;;;;;;;;;;;;29.91;38.53;94018.44;5013954;28;7266;-57
2023/07/15 00:29:55;;;;;;;;;;;;;;;29.91;37.87;94015.66;5015271;28;7001;-57
2023/07/15 00:32:38;;;;;;;;;;;;;;;29.91;37.79;94012.88;5033010;28;9195;-57
2023/07/15 00:35:32;;;;;;;;;;;;;;;29.91;37.73;94012.88;5032413;28;7154;-57
2023/07/15 00:37:59;;;;;;;;;;;;;;;29.90;37.31;94011.41;5028396;28;7260;-57
2023/07/15 00:40:58;;;;;;;;;;;;;;;29.91;38.11;94015.66;5014461;28;7086;-57
2023/07/15 00:44:20;;;;;;;;;;;;;;;29.91;38.38;94014.91;5029896;28;9176;-57
2023/07/15 00:47:14;;;;;;;;;;;;;;;29.89;37.36;94009.91;5031657;28;9139;-57
2023/07/15 00:49:41;;;;;;;;;;;;;;;29.89;37.38;94012.69;5031620;28;7255;-57
2023/07/15 00:52:47;;;;;;;;;;;;;;;29.90;37.65;94014.19;5030436;28;7250;-57
2023/07/15 00:55:18;;;;;;;;;;;;;;;29.88;37.64;94016.75;5014511;28;7233;-57
2023/07/15 00:57:49;;;;;;;;;;;;;;;29.89;37.80;94014.72;5031035;28;9227;-57
2023/07/15 01:00:20;;;;;;;;;;;;;;;29.88;37.59;94016.03;5013150;28;7349;-57
2023/07/15 01:03:03;;;;;;;;;;;;;;;29.85;37.73;94009.53;5030056;28;7234;-57
2023/07/15 01:05:43;;;;;;;;;;;;;;;29.85;37.74;94009.53;5031661;28;7003;-57
2023/07/15 01:08:21;;;;;;;;;;;;;;;29.85;37.99;94003.25;5029963;28;8844;-56
2023/07/15 01:10:47;;;;;;;;;;;;;;;29.85;38.34;94006.75;5029005;28;7332;-57
2023/07/15 01:13:16;;;;;;;;;;;;;;;29.84;38.18;94008.03;5013941;28;7375;-57
2023/07/15 01:15:57;;;;;;;;;;;;;;;29.82;37.55;94005.06;5010494;28;7179;-57
2023/07/15 01:18:27;;;;;;;;;;;;;;;29.82;37.50;94007.84;5030407;28;8851;-57
2023/07/15 01:21:01;;;;;;;;;;;;;;;29.78;37.28;94001.91;5029942;28;9289;-57
2023/07/15 01:23:41;;;;;;;;;;;;;;;29.80;37.32;94010.44;5030756;28;9154;-57
2023/07/15 01:26:11;;;;;;;;;;;;;;;29.84;37.56;94010.09;5028141;28;9085;-57
2023/07/15 01:28:53;;;;;;;;;;;;;;;29.87;37.64;94006.19;5029835;28;8798;-57
2023/07/15 01:31:38;;;;;;;;;;;;;;;29.86;37.13;94008.25;5029974;28;9534;-57
2023/07/15 01:34:08;;;;;;;;;;;;;;;29.86;37.90;94001.97;5011279;28;7262;-57
2023/07/15 01:36:34;;;;;;;;;;;;;;;29.84;37.71;94007.31;5033219;28;9229;-57
2023/07/15 01:39:25;;;;;;;;;;;;;;;29.83;38.00;94014.13;5028977;28;8770;-57
2023/07/15 01:41:51;;;;;;;;;;;;;;;29.82;37.49;94007.84;5031299;28;7197;-57
2023/07/15 01:45:09;;;;;;;;;;;;;;;29.80;38.32;94007.66;5016730;28;7633;-57
2023/07/15 01:48:07;;;;;;;;;;;;;;;29.80;38.06;94004.88;4953548;28;8734;-57
2023/07/15 01:50:48;;;;;;;;;;;;;;;29.79;38.02;94001.38;4950988;28;7416;-57
2023/07/15 01:53:30;;;;;;;;;;;;;;;29.78;38.07;94004.69;4965946;28;7207;-57
2023/07/15 01:56:12;;;;;;;;;;;;;;;29.74;37.20;94002.28;4946443;28;7260;-57
2023/07/15 01:58:46;;;;;;;;;;;;;;;29.75;38.49;94003.03;4970220;28;9246;-57
2023/07/15 02:01:31;;;;;;;;;;;;;;;29.75;38.00;93998.22;4963101;28;8963;-57
2023/07/15 02:04:05;;;;;;;;;;;;;;;29.76;38.19;93993.41;4972740;28;9053;-57
2023/07/15 02:06:31;;;;;;;;;;;;;;;29.76;37.81;93993.41;4948932;28;7246;-57
2023/07/15 02:09:18;;;;;;;;;;;;;;;29.75;38.27;93998.22;4930405;28;7216;-57
2023/07/15 02:11:44;;;;;;;;;;;;;;;29.75;38.42;93994.72;4950264;28;9328;-56
2023/07/15 02:14:11;;;;;;;;;;;;;;;29.74;38.05;93993.22;4942431;28;9488;-57
2023/07/15 02:16:59;;;;;;;;;;;;;;;29.74;37.95;93987.69;4966335;28;7141;-57
2023/07/15 02:19:37;;;;;;;;;;;;;;;29.72;37.54;93993.75;4959474;28;7486;-57
2023/07/15 02:22:24;;;;;;;;;;;;;;;29.72;37.43;93987.47;4957959;28;9080;-57
2023/07/15 02:25:08;;;;;;;;;;;;;;;29.74;38.50;93990.44;5007247;28;9072;-57
2023/07/15 02:28:04;;;;;;;;;;;;;;;29.73;37.95;93980.63;5016113;28;7505;-57
2023/07/15 02:30:50;;;;;;;;;;;;;;;29.75;38.01;93983.63;5004666;28;6972;-57
2023/07/15 02:33:27;;;;;;;;;;;;;;;29.72;37.62;93973.59;5004194;28;7360;-57
2023/07/15 02:35:53;;;;;;;;;;;;;;;29.73;38.40;93975.09;5002561;28;8829;-56
2023/07/15 02:38:21;;;;;;;;;;;;;;;29.73;37.76;93977.88;5000532;28;7322;-57
2023/07/15 02:41:10;;;;;;;;;;;;;;;29.71;37.62;93972.13;4978984;28;7230;-57
2023/07/15 02:43:50;;;;;;;;;;;;;;;29.70;37.18;93967.88;5000158;28;7186;-57
2023/07/15 02:46:17;;;;;;;;;;;;;;;29.70;37.82;93963.06;4999801;28;7088;-57
2023/07/15 02:48:45;;;;;;;;;;;;;;;29.70;37.92;93967.88;5000855;28;7315;-57
2023/07/15 02:51:48;;;;;;;;;;;;;;;29.72;37.24;93968.06;4992764;28;7230;-57
2023/07/15 02:54:28;;;;;;;;;;;;;;;29.69;37.58;93961.56;4890208;29;7042;-57
2023/07/15 02:57:24;;;;;;;;;;;;;;;29.69;38.33;93961.56;4900698;29;9056;-57
2023/07/15 03:00:26;;;;;;;;;;;;;;;29.70;38.30;93963.06;4897412;29;9088;-57
2023/07/15 03:03:00;;;;;;;;;;;;;;;29.68;37.54;93956.59;4834155;29;7198;-56
2023/07/15 03:05:39;;;;;;;;;;;;;;;29.70;37.60;93951.22;4832055;29;7173;-57
2023/07/15 03:08:05;;;;;;;;;;;;;;;29.68;37.39;93954.56;4862871;29;7329;-57
2023/07/15 03:14:06;;;;;;;;;;;;;;;29.66;38.13;93953.63;4876124;29;7185;-57
2023/07/15 03:16:52;;;;;;;;;;;;;;;29.66;38.14;93961.94;4862399;29;7204;-57
2023/07/15 03:19:27;;;;;;;;;;;;;;;29.65;38.13;93949.34;4876788;29;9320;-57
2023/07/15 03:22:05;;;;;;;;;;;;;;;29.66;38.32;93948.06;4877854;29;7261;-57
2023/07/15 03:24:41;;;;;;;;;;;;;;;29.67;37.08;93952.31;4861961;29;7207;-57
2023/07/15 03:27:39;;;;;;;;;;;;;;;29.66;37.86;93950.84;4861987;29;7200;-57
2023/07/15 03:30:21;;;;;;;;;;;;;;;29.65;38.15;93946.59;4892613;29;7108;-57
2023/07/15 03:33:05;;;;;;;;;;;;;;;29.63;37.03;93940.84;4916030;29;7350;-56
2023/07/15 03:35:32;;;;;;;;;;;;;;;29.64;37.51;93943.09;4914748;29;7100;-61
2023/07/15 03:38:01;;;;;;;;;;;;;;;29.65;37.87;93943.81;4892006;29;8855;-61
2023/07/15 03:40:49;;;;;;;;;;;;;;;29.66;38.01;93945.31;4895528;29;7169;-61
2023/07/15 03:43:17;;;;;;;;;;;;;;;29.61;37.22;93937.88;4886419;29;7788;-61
2023/07/15 03:45:58;;;;;;;;;;;;;;;29.61;38.04;93949.72;4878622;29;9460;-61
2023/07/15 03:48:27;;;;;;;;;;;;;;;29.64;36.90;93945.13;4881870;29;7205;-61
2023/07/15 03:50:58;;;;;;;;;;;;;;;29.62;36.85;93948.41;4918072;28;9093;-61
2023/07/15 03:53:34;;;;;;;;;;;;;;;29.63;37.07;93938.81;4957054;28;7070;-61
2023/07/15 03:56:02;;;;;;;;;;;;;;;29.62;36.99;93942.16;4972401;28;7227;-61
2023/07/15 03:58:33;;;;;;;;;;;;;;;29.62;37.89;93947.69;4971956;28;8822;-61
2023/07/15 04:01:01;;;;;;;;;;;;;;;29.60;37.57;93942.69;4969835;28;6985;-61
2023/07/15 04:03:30;;;;;;;;;;;;;;;29.60;37.23;93944.72;4945806;28;9146;-61
2023/07/15 04:05:56;;;;;;;;;;;;;;;29.60;37.57;93941.97;4982692;28;7001;-61
2023/07/15 04:08:22;;;;;;;;;;;;;;;29.60;37.13;93941.97;5012877;28;8628;-61
2023/07/15 04:10:48;;;;;;;;;;;;;;;29.61;37.46;93943.44;5012693;28;9778;-61
2023/07/15 04:13:14;;;;;;;;;;;;;;;29.60;37.25;93936.41;5025230;28;7249;-61
2023/07/15 04:15:49;;;;;;;;;;;;;;;29.58;37.44;93933.44;5011934;28;8762;-61
2023/07/15 04:18:47;;;;;;;;;;;;;;;29.60;37.42;93933.66;5033086;28;9188;-61
2023/07/15 04:21:26;;;;;;;;;;;;;;;29.58;37.47;93939.72;4981147;28;9015;-61
2023/07/15 04:23:54;;;;;;;;;;;;;;;29.59;36.79;93926.59;4981649;28;7471;-61
2023/07/15 04:26:34;;;;;;;;;;;;;;;29.60;37.32;93928.09;4978313;28;7479;-61
2023/07/15 04:29:02;;;;;;;;;;;;;;;29.58;37.77;93928.63;4971866;28;7230;-60
2023/07/15 04:35:06;;;;;;;;;;;;;;;29.57;37.61;93927.16;4931507;28;9215;-61
2023/07/15 04:37:38;;;;;;;;;;;;;;;29.56;37.19;93925.66;4914513;29;7200;-61
2023/07/15 04:40:11;;;;;;;;;;;;;;;29.57;37.07;93920.88;4922873;29;7368;-60
2023/07/15 04:42:49;;;;;;;;;;;;;;;29.58;36.62;93922.38;4927315;29;7075;-60
2023/07/15 04:45:18;;;;;;;;;;;;;;;29.58;36.83;93922.38;4915167;29;9105;-62
2023/07/15 04:47:52;;;;;;;;;;;;;;;29.57;37.71;93916.06;4922695;28;8369;-62
2023/07/15 04:50:45;;;;;;;;;;;;;;;29.62;38.08;93925.53;4918471;29;7973;-62
2023/07/15 04:53:30;;;;;;;;;;;;;;;29.62;37.78;93922.75;4914029;29;7078;-62
2023/07/15 04:56:26;;;;;;;;;;;;;;;29.60;37.06;93919.78;4931736;28;7364;-61
2023/07/15 04:58:52;;;;;;;;;;;;;;;29.60;37.63;93911.47;4930427;28;9223;-62
2023/07/15 05:01:42;;;;;;;;;;;;;;;29.55;38.12;93906.81;4954166;28;7066;-61
2023/07/15 05:04:38;;;;;;;;;;;;;;;29.57;37.69;93909.78;4953881;28;7292;-62
2023/07/15 05:07:04;;;;;;;;;;;;;;;29.58;38.25;93911.28;4900139;29;6989;-62
2023/07/15 05:09:32;;;;;;;;;;;;;;;29.60;37.89;93903.88;4901925;29;7222;-62
2023/07/15 05:12:01;;;;;;;;;;;;;;;29.56;37.79;93906.28;4910795;29;8929;-62
2023/07/15 05:14:39;;;;;;;;;;;;;;;29.60;38.17;93903.16;4905851;29;7092;-62
2023/07/15 05:17:07;;;;;;;;;;;;;;;29.61;37.60;93907.41;4908656;29;9200;-62
2023/07/15 05:19:46;;;;;;;;;;;;;;;29.58;37.99;93906.47;4901288;29;9334;-63
2023/07/15 05:22:31;;;;;;;;;;;;;;;29.59;37.65;93907.94;4918468;29;7064;-63
2023/07/15 05:25:26;;;;;;;;;;;;;;;29.61;38.08;93910.91;4912877;29;7679;-62
2023/07/15 05:27:52;;;;;;;;;;;;;;;29.61;36.97;93904.63;4894910;29;7473;-62
2023/07/15 05:30:28;;;;;;;;;;;;;;;29.61;37.12;93899.84;4894876;29;9045;-62
2023/07/15 05:33:13;;;;;;;;;;;;;;;29.61;37.40;93899.84;4887851;29;7266;-62
2023/07/15 05:35:49;;;;;;;;;;;;;;;29.61;37.09;93896.31;4889914;29;7217;-62
2023/07/15 05:38:43;;;;;;;;;;;;;;;29.64;37.26;93892.44;4919250;29;7252;-62
2023/07/15 05:41:29;;;;;;;;;;;;;;;29.63;36.47;93886.16;4880606;29;7248;-62
2023/07/15 05:44:13;;;;;;;;;;;;;;;29.64;37.26;93889.69;4913859;29;7275;-62
2023/07/15 05:46:52;;;;;;;;;;;;;;;29.61;37.05;93880.44;4932274;29;7029;-62
2023/07/15 05:49:27;;;;;;;;;;;;;;;29.62;36.67;93883.94;4917056;29;7219;-62
2023/07/15 05:52:23;;;;;;;;;;;;;;;29.63;37.26;93886.16;4933039;29;7266;-62
2023/07/15 05:54:50;;;;;;;;;;;;;;;29.62;36.88;93876.34;4911781;29;6989;-66
2023/07/15 05:57:31;;;;;;;;;;;;;;;29.63;37.26;93871.56;4922463;29;9163;-66
2023/07/15 06:00:26;;;;;;;;;;;;;;;29.63;36.83;93875.06;4928250;29;6997;-65
2023/07/15 06:02:52;;;;;;;;;;;;;;;29.60;37.26;93870.63;4852723;29;7443;-65
2023/07/15 06:05:47;;;;;;;;;;;;;;;29.63;36.91;93866.00;4918310;29;9142;-65
2023/07/15 06:08:23;;;;;;;;;;;;;;;29.66;37.65;93862.16;4859252;29;7257;-65
2023/07/15 06:11:03;;;;;;;;;;;;;;;29.65;37.71;93860.66;4879935;29;7722;-66
2023/07/15 06:13:30;;;;;;;;;;;;;;;29.65;36.34;93855.13;4870722;29;8731;-65
2023/07/15 06:15:57;;;;;;;;;;;;;;;29.67;36.58;93861.59;4873852;29;9077;-66
2023/07/15 06:18:23;;;;;;;;;;;;;;;29.64;37.11;93856.41;4856748;29;7226;-65
2023/07/15 06:21:00;;;;;;;;;;;;;;;29.68;37.56;93854.78;4873922;29;7175;-66
2023/07/15 06:23:28;;;;;;;;;;;;;;;29.66;37.09;93851.81;4857397;29;9063;-65
2023/07/15 06:26:14;;;;;;;;;;;;;;;29.69;36.55;93855.50;4859353;29;6973;-65
2023/07/15 06:28:54;;;;;;;;;;;;;;;29.67;37.03;93847.72;4877781;29;7206;-65
2023/07/15 06:31:40;;;;;;;;;;;;;;;29.65;37.24;93844.78;4878642;29;7237;-65
2023/07/15 06:34:06;;;;;;;;;;;;;;;29.71;37.72;93850.88;4878828;29;8684;-65
2023/07/15 06:36:32;;;;;;;;;;;;;;;29.70;37.53;93843.13;4886741;29;7137;-65
2023/07/15 06:39:00;;;;;;;;;;;;;;;29.72;36.91;93843.31;4902647;28;8937;-65
2023/07/15 06:41:26;;;;;;;;;;;;;;;29.74;37.60;93837.97;4914196;29;6939;-65
2023/07/15 06:44:08;;;;;;;;;;;;;;;29.73;37.53;93828.16;4930809;28;7004;-65
2023/07/15 06:46:36;;;;;;;;;;;;;;;29.72;36.98;93832.22;5000904;28;7245;-65
2023/07/15 06:49:11;;;;;;;;;;;;;;;29.74;37.79;93835.22;5020994;28;7015;-65
2023/07/15 06:51:49;;;;;;;;;;;;;;;29.77;36.66;93845.22;5031547;28;6981;-65
2023/07/15 06:55:01;;;;;;;;;;;;;;;29.78;36.84;93852.22;5024224;28;7301;-65
2023/07/15 06:57:40;;;;;;;;;;;;;;;29.77;37.12;93851.50;4967830;28;7454;-65
2023/07/15 07:00:07;;;;;;;;;;;;;;;29.77;38.37;93857.03;4954032;28;6983;-65
2023/07/15 07:02:35;;;;;;;;;;;;;;;29.81;37.58;93853.91;4922946;28;7017;-64
2023/07/15 07:05:17;;;;;;;;;;;;;;;29.81;37.71;93851.13;4968784;28;7314;-61
2023/07/15 07:07:57;;;;;;;;;;;;;;;29.85;37.78;93851.50;4954504;28;7247;-61
2023/07/15 07:10:40;;;;;;;;;;;;;;;29.87;38.19;93851.69;4950622;28;7250;-61
2023/07/15 07:13:06;;;;;;;;;;;;;;;29.88;37.97;93850.41;4952336;28;8642;-61
2023/07/15 07:15:52;;;;;;;;;;;;;;;29.89;37.78;93860.19;4958587;28;7070;-61
2023/07/15 07:18:34;;;;;;;;;;;;;;;29.90;37.56;93864.44;4952689;28;7223;-61
2023/07/15 07:21:01;;;;;;;;;;;;;;;29.88;38.39;93869.81;4954423;28;8787;-61
2023/07/15 07:23:55;;;;;;;;;;;;;;;29.91;37.90;93859.63;4969882;28;7239;-60
2023/07/15 07:26:36;;;;;;;;;;;;;;;29.89;38.75;93857.41;4958290;28;6992;-61
2023/07/15 07:29:06;;;;;;;;;;;;;;;29.92;38.36;93864.63;4955003;28;7091;-60
2023/07/15 07:31:40;;;;;;;;;;;;;;;29.89;38.93;93864.97;4969800;28;7348;-60
2023/07/15 07:34:09;;;;;;;;;;;;;;;29.91;38.19;93877.00;4998620;28;7318;-61
2023/07/15 07:36:39;;;;;;;;;;;;;;;29.93;39.01;93882.75;5017595;28;7189;-60
2023/07/15 07:39:13;;;;;;;;;;;;;;;29.91;38.42;93871.47;5022892;28;7487;-60
2023/07/15 07:41:40;;;;;;;;;;;;;;;29.93;38.87;93866.09;5025573;28;7327;-60
2023/07/15 07:44:49;;;;;;;;;;;;;;;29.94;39.60;93872.41;5033763;28;7959;-60
2023/07/15 07:47:20;;;;;;;;;;;;;;;29.91;39.86;93874.25;5024534;28;7048;-61
2023/07/15 07:49:59;;;;;;;;;;;;;;;29.92;39.70;93872.97;5032232;28;7236;-61
2023/07/15 07:52:26;;;;;;;;;;;;;;;29.92;39.66;93872.22;5028764;28;7187;-61
2023/07/15 07:54:57;;;;;;;;;;;;;;;29.95;39.41;93871.13;5014140;28;7893;-61
2023/07/15 07:57:25;;;;;;;;;;;;;;;29.97;39.08;93874.78;5029398;28;9051;-61
2023/07/15 07:59:54;;;;;;;;;;;;;;;30.01;39.46;93871.69;4997947;28;7092;-61
2023/07/15 08:02:22;;;;;;;;;;;;;;;29.99;39.20;93874.25;5008778;28;7147;-61
2023/07/15 08:04:58;;;;;;;;;;;;;;;29.98;39.44;93862.41;5029852;28;6990;-60
2023/07/15 08:07:29;;;;;;;;;;;;;;;30.00;39.11;93875.72;5029238;28;7330;-61
2023/07/15 08:09:55;;;;;;;;;;;;;;;30.03;39.05;93869.84;5009091;28;7236;-60
2023/07/15 08:12:24;;;;;;;;;;;;;;;30.05;39.53;93875.56;5028988;28;7379;-61
2023/07/15 08:14:53;;;;;;;;;;;;;;;30.05;39.34;93870.03;5027773;28;7060;-56
2023/07/15 08:17:55;;;;;;;;;;;;;;;30.06;39.11;93868.72;5014739;28;7048;-56
2023/07/15 08:20:29;;;;;;;;;;;;;;;30.07;39.92;93864.66;5029250;28;8803;-56
2023/07/15 08:23:17;;;;;;;;;;;;;;;30.06;38.86;93862.44;5027602;28;7440;-56
2023/07/15 08:25:54;;;;;;;;;;;;;;;30.07;39.64;93866.69;5019951;28;7066;-56
2023/07/15 08:28:31;;;;;;;;;;;;;;;30.09;39.99;93859.28;5026140;28;7245;-56
2023/07/15 08:31:00;;;;;;;;;;;;;;;30.07;38.77;93867.44;5010102;28;6863;-56
2023/07/15 08:33:27;;;;;;;;;;;;;;;30.06;38.71;93852.06;5025252;28;7313;-56
2023/07/15 08:35:57;;;;;;;;;;;;;;;30.08;39.36;93866.13;5014038;28;7159;-56
2023/07/15 08:38:25;;;;;;;;;;;;;;;30.09;39.43;93862.06;5004308;28;6992;-56
2023/07/15 08:41:10;;;;;;;;;;;;;;;30.08;39.47;93849.47;5027136;28;9556;-56
2023/07/15 08:43:48;;;;;;;;;;;;;;;30.12;39.71;93851.91;5012539;28;7221;-56
2023/07/15 08:46:35;;;;;;;;;;;;;;;30.12;38.92;93843.59;5026084;28;6990;-56
2023/07/15 08:49:02;;;;;;;;;;;;;;;30.09;39.40;93839.13;5027933;28;7191;-56
2023/07/15 08:51:33;;;;;;;;;;;;;;;30.10;39.80;93844.13;5027171;28;7313;-56
2023/07/15 08:54:05;;;;;;;;;;;;;;;30.11;38.66;93840.06;5023694;28;6993;-56
2023/07/15 08:56:46;;;;;;;;;;;;;;;30.09;39.64;93831.56;5011367;28;6973;-56
2023/07/15 08:59:20;;;;;;;;;;;;;;;30.11;39.77;93834.50;5030075;28;8764;-56
2023/07/15 09:02:05;;;;;;;;;;;;;;;30.14;39.03;93841.00;5010864;28;9012;-56
2023/07/15 09:05:00;;;;;;;;;;;;;;;30.13;38.79;93839.50;5027132;28;9147;-56
2023/07/15 09:07:27;;;;;;;;;;;;;;;30.13;39.06;93831.94;4987879;28;7310;-56
2023/07/15 09:09:54;;;;;;;;;;;;;;;30.12;38.95;93824.91;4990867;28;6977;-56
2023/07/15 09:12:34;;;;;;;;;;;;;;;30.10;38.95;93833.03;4976229;28;9462;-56
2023/07/15 09:15:15;;;;;;;;;;;;;;;30.12;38.86;93835.25;4989853;28;7208;-58
2023/07/15 09:18:09;;;;;;;;;;;;;;;30.13;39.06;93837.47;4970448;28;9211;-56
2023/07/15 09:20:35;;;;;;;;;;;;;;;30.13;38.86;93836.72;4964001;28;9474;-56
2023/07/15 09:23:19;;;;;;;;;;;;;;;30.11;39.05;93834.50;4973373;28;9398;-56
2023/07/15 09:26:00;;;;;;;;;;;;;;;30.19;38.98;93831.75;4973921;28;7368;-55
2023/07/15 09:28:28;;;;;;;;;;;;;;;30.16;39.12;93816.22;4979321;28;7091;-55
2023/07/15 09:31:32;;;;;;;;;;;;;;;30.18;38.74;93827.50;4988924;28;7394;-55
2023/07/15 09:34:11;;;;;;;;;;;;;;;30.19;38.86;93826.22;4971401;28;9490;-55
2023/07/15 09:36:38;;;;;;;;;;;;;;;30.20;38.84;93836.75;4984812;28;7080;-55
2023/07/15 09:39:15;;;;;;;;;;;;;;;30.21;39.29;93829.16;4968902;28;7076;-55
2023/07/15 09:41:46;;;;;;;;;;;;;;;30.21;38.67;93824.34;4970258;28;8616;-55
2023/07/15 09:44:35;;;;;;;;;;;;;;;30.23;39.34;93829.34;5002413;28;7139;-56
2023/07/15 09:47:03;;;;;;;;;;;;;;;30.23;39.01;93827.28;5015675;28;9028;-56
2023/07/15 09:49:29;;;;;;;;;;;;;;;30.22;38.08;93817.50;5024853;28;7272;-55
2023/07/15 09:51:59;;;;;;;;;;;;;;;30.23;38.84;93813.41;5005637;28;7000;-56
2023/07/15 09:54:29;;;;;;;;;;;;;;;30.20;38.17;93813.81;5019780;28;7041;-55
2023/07/15 09:57:09;;;;;;;;;;;;;;;30.21;37.57;93809.75;5006079;28;9077;-55
2023/07/15 09:59:47;;;;;;;;;;;;;;;30.23;37.84;93818.97;5007559;28;9321;-55
2023/07/15 10:02:40;;;;;;;;;;;;;;;30.25;37.19;93821.94;5007794;28;7064;-56
2023/07/15 10:05:14;;;;;;;;;;;;;;;30.26;37.05;93811.56;5032428;28;7690;-55
2023/07/15 10:07:45;;;;;;;;;;;;;;;30.28;36.98;93808.97;5027127;28;8750;-55
2023/07/15 10:10:11;;;;;;;;;;;;;;;30.28;37.00;93803.44;5006213;28;7649;-55
2023/07/15 10:12:39;;;;;;;;;;;;;;;30.30;37.97;93801.59;5008628;28;7175;-55
2023/07/15 10:15:09;;;;;;;;;;;;;;;30.29;37.44;93802.91;5010955;28;7016;-55
2023/07/15 10:17:36;;;;;;;;;;;;;;;30.32;38.33;93801.06;5023708;28;6988;-55
2023/07/15 10:20:13;;;;;;;;;;;;;;;30.32;37.88;93796.25;5023298;28;9641;-55
2023/07/15 10:22:42;;;;;;;;;;;;;;;30.38;38.59;93793.28;5028616;28;6977;-56
2023/07/15 10:25:11;;;;;;;;;;;;;;;30.51;37.52;93787.53;5025304;28;7295;-56
2023/07/15 10:27:40;;;;;;;;;;;;;;;30.61;37.74;93785.66;5011055;28;7072;-56
2023/07/15 10:30:15;;;;;;;;;;;;;;;30.66;37.45;93772.88;5027861;28;7381;-55
2023/07/15 10:33:10;;;;;;;;;;;;;;;30.66;37.68;93775.66;5028200;28;7236;-55
2023/07/15 10:35:39;;;;;;;;;;;;;;;30.66;38.04;93786.75;5009767;28;7252;-62
2023/07/15 10:38:31;;;;;;;;;;;;;;;30.63;38.03;93780.28;5030290;28;7100;-62
2023/07/15 10:41:04;;;;;;;;;;;;;;;30.61;37.55;93773.81;5011199;28;7247;-62
2023/07/15 10:43:37;;;;;;;;;;;;;;;30.61;37.88;93769.00;5028096;28;9403;-61
2023/07/15 10:46:09;;;;;;;;;;;;;;;30.63;37.63;93774.00;5027191;28;7001;-61
2023/07/15 10:48:43;;;;;;;;;;;;;;;30.65;37.43;93779.72;5028739;28;7248;-61
2023/07/15 10:51:11;;;;;;;;;;;;;;;30.64;37.91;93778.25;5012452;28;7068;-62
2023/07/15 10:53:41;;;;;;;;;;;;;;;30.64;37.86;93770.66;5029206;28;7128;-62
2023/07/15 10:56:15;;;;;;;;;;;;;;;30.69;37.50;93780.09;5011087;28;7372;-61
2023/07/15 10:58:42;;;;;;;;;;;;;;;30.72;36.91;93778.97;5010627;28;9454;-62
2023/07/15 11:01:17;;;;;;;;;;;;;;;30.75;37.45;93781.38;5027201;28;7004;-62
2023/07/15 11:03:45;;;;;;;;;;;;;;;30.76;37.49;93776.53;5018822;28;7238;-62
2023/07/15 11:06:14;;;;;;;;;;;;;;;30.72;37.37;93779.72;5024685;28;7484;-62
2023/07/15 11:08:40;;;;;;;;;;;;;;;30.71;37.10;93777.50;5024519;28;7309;-62
2023/07/15 11:11:10;;;;;;;;;;;;;;;30.71;36.91;93766.41;5015992;28;7181;-62
2023/07/15 11:13:37;;;;;;;;;;;;;;;30.71;37.57;93772.66;5024665;28;6937;-61
2023/07/15 11:16:07;;;;;;;;;;;;;;;30.77;37.63;93769.69;5024004;28;7293;-62
2023/07/15 11:18:35;;;;;;;;;;;;;;;30.75;37.30;93761.19;5005536;28;7415;-61
2023/07/15 11:21:06;;;;;;;;;;;;;;;30.76;36.67;93762.66;5024889;28;9218;-62
2023/07/15 11:23:35;;;;;;;;;;;;;;;30.74;37.81;93766.00;5010036;28;6976;-61
2023/07/15 11:26:12;;;;;;;;;;;;;;;30.74;37.85;93746.56;5016102;28;8829;-62
2023/07/15 11:28:50;;;;;;;;;;;;;;;30.73;38.34;93747.13;5027898;28;7143;-62
2023/07/15 11:31:29;;;;;;;;;;;;;;;30.74;38.22;93740.28;5024852;28;7163;-61
2023/07/15 11:34:09;;;;;;;;;;;;;;;30.78;38.02;93740.63;5019181;28;9680;-62
2023/07/15 11:36:37;;;;;;;;;;;;;;;30.80;37.75;93735.28;5034323;28;9244;-61
2023/07/15 11:39:05;;;;;;;;;;;;;;;30.82;37.93;93732.66;5017134;28;7021;-62
2023/07/15 11:41:36;;;;;;;;;;;;;;;30.80;38.15;93738.75;5016550;28;8742;-61
2023/07/15 11:44:35;;;;;;;;;;;;;;;30.83;37.96;93737.66;5029408;28;9083;-62
2023/07/15 11:47:05;;;;;;;;;;;;;;;30.83;37.44;93728.59;5032746;28;7931;-62
2023/07/15 11:49:31;;;;;;;;;;;;;;;30.82;37.42;93727.13;5032658;28;7212;-61
2023/07/15 11:51:59;;;;;;;;;;;;;;;30.86;37.20;93728.25;5015721;28;7487;-61
2023/07/15 11:54:45;;;;;;;;;;;;;;;30.87;37.09;93731.72;5014969;28;9281;-62
2023/07/15 11:57:11;;;;;;;;;;;;;;;30.85;37.58;93726.72;5023318;28;7115;-61
2023/07/15 11:59:49;;;;;;;;;;;;;;;30.85;37.64;93721.16;5031557;28;9266;-61
2023/07/15 12:02:20;;;;;;;;;;;;;;;30.87;36.88;93731.72;5028690;28;9233;-61
2023/07/15 12:04:48;;;;;;;;;;;;;;;30.88;37.01;93719.34;5008232;28;6981;-61
2023/07/15 12:07:14;;;;;;;;;;;;;;;30.89;37.52;93709.69;5026279;28;7227;-62
2023/07/15 12:09:43;;;;;;;;;;;;;;;30.90;36.46;93705.63;5026113;28;8722;-62
2023/07/15 12:12:30;;;;;;;;;;;;;;;30.88;37.19;93706.19;5016020;28;9141;-61
2023/07/15 12:15:52;;;;;;;;;;;;;;;30.97;35.77;93699.31;5014547;28;7241;-61
2023/07/15 12:18:29;;;;;;;;;;;;;;;31.10;35.28;93690.72;4976583;28;7988;-62
2023/07/15 12:20:56;;;;;;;;;;;;;;;31.17;35.43;93692.69;4954948;28;6980;-61
2023/07/15 12:23:25;;;;;;;;;;;;;;;31.16;35.63;93680.13;4941898;28;7526;-61
2023/07/15 12:25:55;;;;;;;;;;;;;;;31.21;34.51;93690.28;4957727;28;6892;-61
2023/07/15 12:28:37;;;;;;;;;;;;;;;31.23;35.13;93687.69;4974109;28;9106;-61
2023/07/15 12:31:17;;;;;;;;;;;;;;;31.23;34.05;93671.00;4963971;28;9243;-61
2023/07/15 12:34:00;;;;;;;;;;;;;;;31.20;35.06;93670.09;4943310;28;9055;-61
2023/07/15 12:36:30;;;;;;;;;;;;;;;31.17;35.10;93662.13;4958285;28;6988;-61
2023/07/15 12:38:56;;;;;;;;;;;;;;;31.15;35.63;93665.47;4942806;28;7153;-61
2023/07/15 12:41:45;;;;;;;;;;;;;;;31.16;35.15;93666.22;4977199;28;7187;-61
2023/07/15 12:44:45;;;;;;;;;;;;;;;31.13;35.99;93659.00;4962092;28;8799;-61
2023/07/15 12:47:13;;;;;;;;;;;;;;;31.14;34.94;93664.03;4926403;29;7312;-61
2023/07/15 12:49:39;;;;;;;;;;;;;;;31.14;34.95;93663.28;4943538;28;9070;-61
2023/07/15 12:52:05;;;;;;;;;;;;;;;31.15;35.51;93659.19;4924240;29;7150;-61
2023/07/15 12:54:43;;;;;;;;;;;;;;;31.14;35.17;93649.38;4949915;28;7061;-62
2023/07/15 12:57:20;;;;;;;;;;;;;;;31.16;34.87;93660.69;4950538;28;6986;-61
2023/07/15 12:59:57;;;;;;;;;;;;;;;31.16;35.09;93657.91;4948541;28;7245;-62
2023/07/15 13:02:24;;;;;;;;;;;;;;;31.22;35.23;93655.63;4948352;28;7272;-63
2023/07/15 13:04:53;;;;;;;;;;;;;;;31.22;34.61;93653.59;4945889;28;9051;-62
2023/07/15 13:07:21;;;;;;;;;;;;;;;31.22;35.46;93667.47;4950632;28;7057;-62
2023/07/15 13:10:06;;;;;;;;;;;;;;;31.24;35.26;93664.13;4947537;28;9607;-61
2023/07/15 13:12:33;;;;;;;;;;;;;;;31.23;35.84;93659.88;4950505;28;9525;-61
2023/07/15 13:15:09;;;;;;;;;;;;;;;31.23;35.63;93652.28;4949650;28;6978;-62
2023/07/15 13:17:51;;;;;;;;;;;;;;;31.24;35.26;93655.78;4935156;29;7068;-61
2023/07/15 13:20:31;;;;;;;;;;;;;;;31.22;35.35;93661.94;4947857;28;8827;-62
2023/07/15 13:23:11;;;;;;;;;;;;;;;31.17;35.75;93660.09;4973004;28;9395;-62
2023/07/15 13:26:08;;;;;;;;;;;;;;;31.20;35.60;93669.34;5008287;28;7069;-62
2023/07/15 13:28:44;;;;;;;;;;;;;;;31.22;35.55;93670.25;4981365;28;9473;-62
2023/07/15 13:31:14;;;;;;;;;;;;;;;31.21;35.73;93674.34;4979182;28;7224;-61
2023/07/15 13:33:40;;;;;;;;;;;;;;;31.22;35.56;93686.94;4995798;28;9143;-63
2023/07/15 13:36:35;;;;;;;;;;;;;;;31.24;35.95;93698.22;4997532;28;7156;-61
2023/07/15 13:39:35;;;;;;;;;;;;;;;31.24;35.98;93719.69;4981223;28;8476;-62
2023/07/15 13:42:10;;;;;;;;;;;;;;;31.20;36.63;93725.66;4994951;28;7060;-60
2023/07/15 13:44:51;;;;;;;;;;;;;;;31.18;36.37;93721.97;4992055;28;8108;-61
2023/07/15 13:47:18;;;;;;;;;;;;;;;31.17;36.85;93726.03;4986920;28;9052;-61
2023/07/15 13:49:46;;;;;;;;;;;;;;;31.15;36.25;93740.50;4988377;28;6988;-62
2023/07/15 13:52:22;;;;;;;;;;;;;;;31.12;37.14;93758.28;4998268;28;6931;-62
2023/07/15 13:55:18;;;;;;;;;;;;;;;31.15;37.81;93761.97;4998754;28;6861;-63